Time;durP1;ratioP1;P1;durP2;ratioP2;P2;SDS_P1;SDS_P2;PMS_P1;PMS_P2;Temp;Humidity;BMP_temperature;BMP_pressure;BME280_temperature;BME280_humidity;BME280_pressure;Samples;Min_cycle;Max_cycle;Signal;HPM_P1;HPM_P2
2023/08/20 00:01:57;;;;;;;14.50;10.80;;;25.40;99.90;;;;;;5263008;28;20448;-49
2023/08/20 00:04:30;;;;;;;13.93;10.67;;;25.40;99.90;;;;;;5257617;28;20435;-49
2023/08/20 00:07:02;;;;;;;14.50;11.20;;;25.40;99.90;;;;;;5263349;28;20419;-50
2023/08/20 00:09:33;;;;;;;14.27;10.47;;;25.40;99.90;;;;;;5268608;28;20439;-49
2023/08/20 00:12:05;;;;;;;13.83;11.83;;;25.40;99.90;;;;;;5249260;28;20475;-49
2023/08/20 00:15:04;;;;;;;14.90;11.20;;;25.40;99.90;;;;;;5264121;28;20234;-49
2023/08/20 00:17:37;;;;;;;13.10;10.50;;;25.40;99.90;;;;;;5262195;28;20428;-49
2023/08/20 00:20:12;;;;;;;11.00;9.90;;;25.30;99.90;;;;;;5250051;28;20435;-49
2023/08/20 00:22:45;;;;;;;11.73;10.60;;;25.20;99.90;;;;;;5264870;28;20824;-49
2023/08/20 00:25:17;;;;;;;16.00;11.97;;;25.20;99.90;;;;;;5250624;28;20897;-49
2023/08/20 00:27:47;;;;;;;14.43;12.23;;;25.20;99.90;;;;;;5265187;28;20436;-48
2023/08/20 00:30:18;;;;;;;15.20;11.33;;;25.20;99.90;;;;;;5258963;28;20983;-48
2023/08/20 00:32:50;;;;;;;13.00;10.97;;;25.20;99.90;;;;;;5262864;28;20227;-49
2023/08/20 00:35:21;;;;;;;18.53;10.10;;;25.20;99.90;;;;;;5258623;28;20216;-48
2023/08/20 00:37:51;;;;;;;16.30;10.50;;;25.20;99.90;;;;;;5267641;28;20761;-49
2023/08/20 00:40:22;;;;;;;13.17;10.80;;;25.20;99.90;;;;;;5266580;28;20551;-48
2023/08/20 00:42:53;;;;;;;13.07;9.97;;;25.20;99.90;;;;;;5265591;28;20194;-48
2023/08/20 00:45:25;;;;;;;13.63;10.30;;;25.20;99.90;;;;;;5263900;28;20186;-49
2023/08/20 00:47:56;;;;;;;11.53;10.33;;;25.10;99.90;;;;;;5263521;28;20546;-49
2023/08/20 00:50:27;;;;;;;13.23;11.37;;;25.10;99.90;;;;;;5266053;28;20527;-48
2023/08/20 00:52:58;;;;;;;12.37;9.90;;;25.00;99.90;;;;;;5261987;28;20526;-48
2023/08/20 00:55:29;;;;;;;11.07;9.80;;;25.00;99.90;;;;;;5266968;28;20275;-49
2023/08/20 00:58:00;;;;;;;14.50;10.40;;;25.00;99.90;;;;;;5266487;28;20181;-48
2023/08/20 01:00:31;;;;;;;10.50;9.30;;;25.00;99.90;;;;;;5261010;28;20190;-49
2023/08/20 01:03:01;;;;;;;9.47;8.47;;;25.00;99.90;;;;;;5257412;28;21032;-48
2023/08/20 01:05:36;;;;;;;11.17;10.07;;;25.00;99.90;;;;;;5261315;28;20178;-48
2023/08/20 01:08:30;;;;;;;11.63;10.17;;;25.10;99.90;;;;;;5264615;28;20706;-49
2023/08/20 01:11:09;;;;;;;10.80;9.70;;;25.10;99.90;;;;;;5262842;28;20460;-48
2023/08/20 01:13:39;;;;;;;10.87;9.10;;;25.10;99.90;;;;;;5265194;28;20461;-48
2023/08/20 01:16:10;;;;;;;10.33;9.27;;;25.20;99.90;;;;;;5261805;28;20467;-48
2023/08/20 01:18:41;;;;;;;14.17;10.60;;;25.10;99.90;;;;;;5259292;28;20653;-47
2023/08/20 01:21:29;;;;;;;10.30;9.10;;;25.10;99.90;;;;;;5261456;28;20237;-49
2023/08/20 01:24:06;;;;;;;12.10;10.50;;;25.10;99.90;;;;;;5262337;28;20196;-49
2023/08/20 01:26:56;;;;;;;11.80;9.53;;;25.00;99.90;;;;;;5260995;28;20490;-48
2023/08/20 01:29:28;;;;;;;9.50;8.63;;;24.90;99.90;;;;;;5261903;28;20519;-48
2023/08/20 01:31:59;;;;;;;10.43;9.33;;;24.80;99.90;;;;;;5261219;28;20460;-49
2023/08/20 01:34:30;;;;;;;14.93;10.80;;;24.70;99.90;;;;;;5247367;28;20455;-48
2023/08/20 01:37:00;;;;;;;12.37;9.90;;;24.70;99.90;;;;;;5250457;28;20933;-50
2023/08/20 01:39:31;;;;;;;14.27;10.83;;;24.70;99.90;;;;;;5265208;28;20288;-48
2023/08/20 01:42:02;;;;;;;21.30;10.90;;;24.60;99.90;;;;;;5265947;28;20274;-49
2023/08/20 01:44:33;;;;;;;23.73;10.90;;;24.50;99.90;;;;;;5272853;28;20192;-49
2023/08/20 01:47:03;;;;;;;12.90;10.40;;;24.50;99.90;;;;;;5268560;28;20634;-49
2023/08/20 01:49:34;;;;;;;10.87;9.73;;;24.40;99.90;;;;;;5268058;28;20210;-49
2023/08/20 01:52:05;;;;;;;16.33;10.97;;;24.30;99.90;;;;;;5270408;28;20205;-49
2023/08/20 01:54:36;;;;;;;14.03;10.33;;;24.30;99.90;;;;;;5266571;28;20202;-48
2023/08/20 01:57:06;;;;;;;11.13;10.03;;;24.20;99.90;;;;;;5267331;28;20544;-48
2023/08/20 01:59:37;;;;;;;12.37;10.27;;;24.20;99.90;;;;;;5264227;28;20182;-48
2023/08/20 02:02:08;;;;;;;11.37;10.20;;;24.20;99.90;;;;;;5264685;28;20204;-49
2023/08/20 02:04:39;;;;;;;21.73;12.50;;;24.10;99.90;;;;;;5266483;28;20183;-49
2023/08/20 02:07:09;;;;;;;11.37;9.73;;;24.10;99.90;;;;;;5263880;28;20178;-48
2023/08/20 02:09:40;;;;;;;15.17;10.57;;;24.10;99.90;;;;;;5266588;28;20177;-48
2023/08/20 02:12:11;;;;;;;12.90;11.13;;;24.00;99.90;;;;;;5265539;28;20301;-48
2023/08/20 02:14:41;;;;;;;12.67;11.03;;;24.00;99.90;;;;;;5263183;28;20204;-48
2023/08/20 02:17:12;;;;;;;19.33;11.70;;;23.90;99.90;;;;;;5263387;28;20282;-48
2023/08/20 02:19:43;;;;;;;11.93;9.87;;;23.90;99.90;;;;;;5261828;28;20243;-49
2023/08/20 02:22:13;;;;;;;11.00;9.90;;;23.90;99.90;;;;;;5264329;28;20201;-48
2023/08/20 02:24:44;;;;;;;13.43;10.70;;;23.90;99.90;;;;;;5266258;28;20177;-47
2023/08/20 02:27:15;;;;;;;13.90;10.70;;;23.80;99.90;;;;;;5266952;28;20181;-48
2023/08/20 02:29:46;;;;;;;13.43;10.93;;;23.80;99.90;;;;;;5258834;28;20174;-48
2023/08/20 02:32:16;;;;;;;13.90;10.37;;;23.80;99.90;;;;;;5263872;28;20211;-49
2023/08/20 02:34:51;;;;;;;17.57;11.20;;;23.70;99.90;;;;;;5252545;28;20206;-48
2023/08/20 02:37:21;;;;;;;11.57;9.23;;;23.70;99.90;;;;;;5264207;28;20173;-50
2023/08/20 02:39:52;;;;;;;21.43;12.07;;;23.70;99.90;;;;;;5262230;28;20432;-48
2023/08/20 02:42:23;;;;;;;13.80;10.50;;;23.70;99.90;;;;;;5266617;28;20263;-48
2023/08/20 02:44:53;;;;;;;14.17;9.97;;;23.60;99.90;;;;;;5257311;28;20250;-49
2023/08/20 02:47:24;;;;;;;13.63;11.00;;;23.60;99.90;;;;;;5261868;28;20181;-49
2023/08/20 02:49:55;;;;;;;13.37;10.43;;;23.50;99.90;;;;;;5260922;28;20178;-50
2023/08/20 02:52:25;;;;;;;14.90;10.80;;;23.50;99.90;;;;;;5256120;28;20208;-48
2023/08/20 02:54:56;;;;;;;10.87;9.73;;;23.50;99.90;;;;;;5264035;28;20195;-47
2023/08/20 02:57:27;;;;;;;18.13;10.80;;;23.50;99.90;;;;;;5265019;28;20555;-48
2023/08/20 02:59:58;;;;;;;16.87;11.90;;;23.40;99.90;;;;;;5264199;28;20281;-49
2023/08/20 03:02:28;;;;;;;26.33;10.57;;;23.40;99.90;;;;;;5264888;28;20197;-48
2023/08/20 03:04:59;;;;;;;19.40;10.10;;;23.40;99.90;;;;;;5261769;28;20307;-49
2023/08/20 03:07:30;;;;;;;16.60;11.47;;;23.40;99.90;;;;;;5262015;28;20182;-47
2023/08/20 03:10:00;;;;;;;15.27;10.90;;;23.40;99.90;;;;;;5258195;28;20186;-48
2023/08/20 03:12:31;;;;;;;12.53;10.47;;;23.40;99.90;;;;;;5260815;28;20202;-48
2023/08/20 03:15:02;;;;;;;14.17;10.23;;;23.30;99.90;;;;;;5260624;28;20251;-48
2023/08/20 03:17:33;;;;;;;13.20;10.90;;;23.30;99.90;;;;;;5260056;28;20170;-48
2023/08/20 03:20:06;;;;;;;13.90;9.63;;;23.20;99.90;;;;;;5258860;28;20435;-48
2023/08/20 03:22:38;;;;;;;18.40;11.03;;;23.20;99.90;;;;;;5264810;28;20194;-48
2023/08/20 03:25:08;;;;;;;22.53;11.07;;;23.20;99.90;;;;;;5261048;28;20438;-48
2023/08/20 03:27:39;;;;;;;15.90;10.97;;;23.20;99.90;;;;;;5260098;28;20432;-48
2023/08/20 03:30:10;;;;;;;19.67;11.23;;;23.10;99.90;;;;;;5262334;28;20196;-47
2023/08/20 03:32:41;;;;;;;13.40;10.53;;;23.10;99.90;;;;;;5255747;28;20197;-47
2023/08/20 03:35:12;;;;;;;15.50;11.33;;;23.00;99.90;;;;;;5265695;28;20459;-47
2023/08/20 03:37:42;;;;;;;15.63;10.57;;;23.00;99.90;;;;;;5260605;28;20258;-47
2023/08/20 03:40:13;;;;;;;14.93;11.00;;;23.00;99.90;;;;;;5259735;28;20179;-48
2023/08/20 03:42:44;;;;;;;11.13;9.97;;;22.90;99.90;;;;;;5264995;28;20342;-48
2023/08/20 03:45:15;;;;;;;17.43;10.37;;;22.90;99.90;;;;;;5263365;28;20264;-48
2023/08/20 03:47:46;;;;;;;13.20;11.63;;;22.90;99.90;;;;;;5261150;28;20205;-47
2023/08/20 03:50:17;;;;;;;13.77;11.23;;;22.80;99.90;;;;;;5264018;28;20261;-48
2023/08/20 03:52:48;;;;;;;15.10;11.93;;;22.80;99.90;;;;;;5256477;28;21552;-48
2023/08/20 03:55:19;;;;;;;20.83;11.03;;;22.80;99.90;;;;;;5262556;28;20221;-48
2023/08/20 03:57:50;;;;;;;14.83;11.70;;;22.70;99.90;;;;;;5264509;28;20177;-47
2023/08/20 04:00:20;;;;;;;15.17;10.43;;;22.70;99.90;;;;;;5265272;28;20442;-48
2023/08/20 04:02:51;;;;;;;9.90;8.90;;;22.70;99.90;;;;;;5258356;28;20269;-48
2023/08/20 04:05:22;;;;;;;13.50;11.43;;;22.70;99.90;;;;;;5264643;28;20189;-48
2023/08/20 04:07:53;;;;;;;17.33;10.60;;;22.70;99.90;;;;;;5260620;28;20838;-48
2023/08/20 04:10:23;;;;;;;12.90;11.20;;;22.70;99.90;;;;;;5257874;28;20193;-48
2023/08/20 04:12:54;;;;;;;16.57;10.53;;;22.60;99.90;;;;;;5265372;28;20245;-48
2023/08/20 04:15:25;;;;;;;15.90;11.07;;;22.60;99.90;;;;;;5262621;28;20202;-48
2023/08/20 04:17:55;;;;;;;13.90;10.27;;;22.60;99.90;;;;;;5259276;28;20265;-48
2023/08/20 04:20:26;;;;;;;17.40;11.57;;;22.60;99.90;;;;;;5265152;28;20182;-48
2023/08/20 04:22:57;;;;;;;14.93;12.40;;;22.60;99.90;;;;;;5259205;28;20179;-48
2023/08/20 04:25:28;;;;;;;18.87;11.50;;;22.50;99.90;;;;;;5261005;28;20210;-49
2023/08/20 04:27:58;;;;;;;13.53;12.13;;;22.50;99.90;;;;;;5258284;28;20273;-48
2023/08/20 04:30:29;;;;;;;15.17;11.60;;;22.60;99.90;;;;;;5259366;28;20190;-48
2023/08/20 04:33:00;;;;;;;16.20;11.07;;;22.60;99.90;;;;;;5261186;28;20694;-49
2023/08/20 04:35:31;;;;;;;13.53;11.97;;;22.70;99.90;;;;;;5260948;28;20228;-48
2023/08/20 04:38:02;;;;;;;28.00;13.07;;;22.60;99.90;;;;;;5259958;28;20166;-48
2023/08/20 04:40:33;;;;;;;19.57;12.20;;;22.70;99.90;;;;;;5257554;28;20178;-48
2023/08/20 04:43:04;;;;;;;17.30;13.13;;;22.80;99.90;;;;;;5264128;28;20431;-47
2023/08/20 04:45:34;;;;;;;16.37;12.57;;;22.80;99.90;;;;;;5265796;28;24897;-47
2023/08/20 04:48:06;;;;;;;12.93;11.53;;;22.80;99.90;;;;;;5264380;28;20178;-47
2023/08/20 04:50:36;;;;;;;15.20;10.67;;;22.80;99.90;;;;;;5260853;28;20188;-48
2023/08/20 04:53:07;;;;;;;15.03;11.50;;;22.90;99.90;;;;;;5262842;28;20431;-49
2023/08/20 04:55:38;;;;;;;15.30;10.40;;;23.00;99.90;;;;;;5260878;28;20770;-47
2023/08/20 04:58:09;;;;;;;17.33;11.83;;;23.20;99.90;;;;;;5265184;28;20684;-48
2023/08/20 05:00:39;;;;;;;13.60;11.20;;;23.30;99.90;;;;;;5259169;28;20185;-48
2023/08/20 05:03:10;;;;;;;13.07;10.47;;;23.60;99.90;;;;;;5264087;28;20607;-47
2023/08/20 05:05:41;;;;;;;14.50;11.07;;;24.10;99.90;;;;;;5264650;28;20259;-47
2023/08/20 05:08:13;;;;;;;13.07;11.07;;;24.70;99.90;;;;;;5265021;28;20193;-47
2023/08/20 05:10:44;;;;;;;15.63;11.30;;;25.00;99.90;;;;;;5260727;28;20280;-47
2023/08/20 05:13:15;;;;;;;17.93;10.70;;;24.60;99.90;;;;;;5264202;28;20433;-48
2023/08/20 05:15:46;;;;;;;16.97;12.83;;;24.50;99.90;;;;;;5266689;28;20616;-48
2023/08/20 05:18:17;;;;;;;20.57;13.07;;;24.50;99.90;;;;;;5266171;28;20298;-47
2023/08/20 05:20:48;;;;;;;13.50;11.20;;;24.50;99.90;;;;;;5267594;28;20447;-48
2023/08/20 05:23:19;;;;;;;12.03;10.20;;;24.50;99.90;;;;;;5264312;28;20269;-48
2023/08/20 05:25:49;;;;;;;11.73;9.70;;;25.00;99.90;;;;;;5262818;28;20547;-48
2023/08/20 05:28:20;;;;;;;13.77;10.60;;;25.30;99.90;;;;;;5265289;28;20181;-47
2023/08/20 05:30:57;;;;;;;14.00;10.73;;;25.40;99.90;;;;;;5264097;28;20296;-48
2023/08/20 05:33:27;;;;;;;16.40;10.93;;;25.60;99.90;;;;;;5262099;28;20239;-47
2023/08/20 05:35:59;;;;;;;15.80;11.10;;;26.10;99.90;;;;;;5269095;28;20549;-47
2023/08/20 05:38:30;;;;;;;17.30;11.23;;;26.30;99.90;;;;;;5264226;28;20193;-47
2023/08/20 05:41:01;;;;;;;14.77;10.50;;;27.00;99.90;;;;;;5265812;28;20448;-47
2023/08/20 05:43:31;;;;;;;10.40;9.40;;;27.10;99.90;;;;;;5266752;28;20265;-49
2023/08/20 05:46:03;;;;;;;22.27;12.17;;;27.00;99.90;;;;;;5266819;28;20208;-48
2023/08/20 05:48:34;;;;;;;10.67;9.40;;;27.00;99.90;;;;;;5263203;28;20309;-47
2023/08/20 05:51:04;;;;;;;17.20;10.87;;;26.90;99.90;;;;;;5266675;28;20489;-48
2023/08/20 05:53:35;;;;;;;12.37;11.07;;;26.80;99.90;;;;;;5261529;28;20195;-49
2023/08/20 05:56:06;;;;;;;16.83;11.60;;;26.70;99.90;;;;;;5260139;28;20202;-48
2023/08/20 05:58:37;;;;;;;10.90;9.53;;;26.90;99.90;;;;;;5262921;28;20937;-49
2023/08/20 06:01:07;;;;;;;13.07;10.50;;;26.40;99.90;;;;;;5267096;28;20221;-48
2023/08/20 06:03:38;;;;;;;14.23;11.30;;;26.30;99.90;;;;;;5248851;28;20192;-48
2023/08/20 06:06:09;;;;;;;17.60;11.47;;;26.00;99.90;;;;;;5254431;28;20193;-49
2023/08/20 06:08:39;;;;;;;11.20;9.60;;;26.20;99.90;;;;;;5266184;28;20188;-49
2023/08/20 06:11:10;;;;;;;17.90;10.93;;;27.30;99.90;;;;;;5260751;28;20209;-47
2023/08/20 06:13:41;;;;;;;14.37;9.70;;;28.10;99.90;;;;;;5263069;28;20307;-48
2023/08/20 06:16:11;;;;;;;9.27;8.10;;;27.90;99.90;;;;;;5254399;28;20193;-48
2023/08/20 06:18:42;;;;;;;8.93;8.00;;;27.70;99.90;;;;;;5259296;28;20261;-47
2023/08/20 06:21:13;;;;;;;12.20;10.80;;;27.40;99.90;;;;;;5254141;28;20209;-49
2023/08/20 06:23:44;;;;;;;12.60;10.00;;;27.10;99.90;;;;;;5255723;28;20185;-48
2023/08/20 06:26:15;;;;;;;11.63;9.80;;;26.90;99.90;;;;;;5252462;28;20216;-48
2023/08/20 06:28:46;;;;;;;16.70;10.40;;;27.20;99.90;;;;;;5257620;28;20200;-48
2023/08/20 06:31:16;;;;;;;10.53;9.53;;;27.20;99.90;;;;;;5248718;28;20215;-48
2023/08/20 06:33:47;;;;;;;11.27;10.17;;;27.00;99.90;;;;;;5265840;28;20677;-48
2023/08/20 06:36:18;;;;;;;11.10;9.37;;;26.70;99.90;;;;;;5275644;28;20309;-48
2023/08/20 06:38:49;;;;;;;11.50;9.93;;;26.80;99.90;;;;;;5274696;28;21056;-48
2023/08/20 06:41:20;;;;;;;10.00;8.63;;;26.70;99.90;;;;;;5248590;28;20274;-49
2023/08/20 06:43:51;;;;;;;13.93;9.60;;;26.40;99.90;;;;;;5256059;28;20173;-50
2023/08/20 06:46:22;;;;;;;10.10;8.53;;;26.60;99.90;;;;;;5274502;28;20442;-48
2023/08/20 06:48:52;;;;;;;9.30;8.40;;;26.80;99.90;;;;;;5273512;28;20182;-49
2023/08/20 06:51:23;;;;;;;13.93;9.00;;;27.30;99.90;;;;;;5271643;28;20338;-50
2023/08/20 06:53:55;;;;;;;12.03;9.67;;;27.10;99.90;;;;;;5266000;28;20197;-49
2023/08/20 06:56:25;;;;;;;14.37;9.50;;;26.70;99.90;;;;;;5273697;28;20202;-49
2023/08/20 06:58:56;;;;;;;13.70;11.60;;;26.30;99.90;;;;;;5267022;28;20431;-49
2023/08/20 07:01:27;;;;;;;11.13;9.20;;;25.90;99.90;;;;;;5266453;28;20221;-48
2023/08/20 07:03:57;;;;;;;14.13;9.50;;;25.80;99.90;;;;;;5266454;28;20178;-48
2023/08/20 07:06:28;;;;;;;14.90;8.93;;;25.60;99.90;;;;;;5263240;28;20243;-48
2023/08/20 07:08:59;;;;;;;13.27;10.10;;;25.60;99.90;;;;;;5261606;28;20186;-49
2023/08/20 07:11:30;;;;;;;11.00;9.00;;;25.70;99.90;;;;;;5242606;28;20236;-49
2023/08/20 07:14:00;;;;;;;15.83;11.30;;;25.40;99.90;;;;;;5262033;28;20194;-47
2023/08/20 07:16:31;;;;;;;12.33;10.47;;;25.10;99.90;;;;;;5267797;28;20216;-49
2023/08/20 07:19:02;;;;;;;18.93;11.13;;;24.60;99.90;;;;;;5267930;28;20254;-47
2023/08/20 07:21:33;;;;;;;26.77;11.63;;;24.60;99.90;;;;;;5269176;28;20894;-49
2023/08/20 07:24:04;;;;;;;12.87;11.23;;;24.40;99.90;;;;;;5260635;28;20177;-50
2023/08/20 07:26:35;;;;;;;21.27;11.00;;;24.50;99.90;;;;;;5270699;28;20181;-49
2023/08/20 07:29:06;;;;;;;11.83;9.60;;;24.80;99.90;;;;;;5266973;28;20444;-49
2023/08/20 07:31:36;;;;;;;12.23;8.43;;;25.10;99.90;;;;;;5269284;28;20197;-48
2023/08/20 07:34:07;;;;;;;13.93;11.37;;;25.30;99.90;;;;;;5271032;28;20186;-49
2023/08/20 07:36:38;;;;;;;15.37;10.30;;;25.60;99.90;;;;;;5263365;28;21693;-49
2023/08/20 07:39:09;;;;;;;11.83;9.90;;;25.60;99.90;;;;;;5272157;28;20212;-49
2023/08/20 07:41:39;;;;;;;15.40;10.80;;;25.70;99.90;;;;;;5274766;28;20216;-48
2023/08/20 07:44:10;;;;;;;12.17;10.23;;;26.00;99.90;;;;;;5251614;28;20181;-49
2023/08/20 07:46:41;;;;;;;12.90;9.37;;;26.10;99.90;;;;;;5257036;28;20200;-48
2023/08/20 07:49:12;;;;;;;13.83;10.10;;;25.80;99.90;;;;;;5257126;28;20192;-48
2023/08/20 07:51:42;;;;;;;12.33;9.80;;;25.90;99.90;;;;;;5260056;28;21182;-48
2023/08/20 07:54:13;;;;;;;18.80;12.10;;;26.00;99.90;;;;;;5262363;28;20185;-48
2023/08/20 07:56:44;;;;;;;17.47;11.20;;;25.60;99.90;;;;;;5265885;28;20211;-49
2023/08/20 07:59:15;;;;;;;13.63;8.83;;;25.10;99.90;;;;;;5265671;28;20196;-48
2023/08/20 08:01:45;;;;;;;11.40;9.07;;;25.20;99.90;;;;;;5263034;28;20238;-49
2023/08/20 08:04:16;;;;;;;12.57;9.97;;;25.60;99.90;;;;;;5267668;28;20181;-48
2023/08/20 08:06:47;;;;;;;14.20;10.63;;;25.90;99.90;;;;;;5269958;28;20174;-48
2023/08/20 08:09:29;;;;;;;15.03;11.80;;;25.60;99.90;;;;;;5265150;28;20653;-51
2023/08/20 08:12:00;;;;;;;12.50;10.17;;;25.40;99.90;;;;;;5266270;28;20668;-50
2023/08/20 08:14:31;;;;;;;11.73;9.93;;;25.50;99.90;;;;;;5267565;28;20962;-48
2023/08/20 08:17:02;;;;;;;12.63;8.43;;;27.30;99.90;;;;;;5263934;28;20432;-50
2023/08/20 08:19:32;;;;;;;13.93;8.80;;;28.50;99.90;;;;;;5249843;28;20207;-48
2023/08/20 08:22:06;;;;;;;12.47;9.23;;;28.80;99.90;;;;;;5256034;28;20297;-50
2023/08/20 08:24:37;;;;;;;16.23;9.33;;;28.70;99.90;;;;;;5264757;28;20190;-49
2023/08/20 08:27:07;;;;;;;11.80;8.63;;;29.20;99.90;;;;;;5269429;28;20488;-49
2023/08/20 08:29:38;;;;;;;9.67;7.90;;;29.70;99.90;;;;;;5268437;28;20434;-49
2023/08/20 08:32:09;;;;;;;17.20;8.73;;;30.30;99.90;;;;;;5266451;28;20197;-49
2023/08/20 08:34:40;;;;;;;9.27;8.17;;;30.70;99.90;;;;;;5265726;28;20205;-48
2023/08/20 08:37:11;;;;;;;11.60;8.70;;;31.10;99.90;;;;;;5270263;28;20446;-48
2023/08/20 08:39:41;;;;;;;9.53;6.80;;;31.50;99.90;;;;;;5266745;28;20365;-51
2023/08/20 08:42:14;;;;;;;14.50;7.70;;;31.30;99.90;;;;;;5270554;28;20689;-49
2023/08/20 08:44:45;;;;;;;7.50;6.77;;;31.60;99.90;;;;;;5262072;28;20193;-50
2023/08/20 08:47:18;;;;;;;7.97;7.13;;;32.00;98.60;;;;;;5269218;28;20430;-50
2023/08/20 08:49:49;;;;;;;10.17;6.93;;;31.80;97.90;;;;;;5268311;28;20459;-50
2023/08/20 08:52:22;;;;;;;8.03;6.07;;;31.30;97.00;;;;;;5263737;28;20537;-48
2023/08/20 08:54:53;;;;;;;7.53;6.40;;;30.70;97.30;;;;;;5261403;28;20463;-48
2023/08/20 08:57:23;;;;;;;6.90;6.23;;;30.10;98.10;;;;;;5277777;28;20950;-49
2023/08/20 08:59:54;;;;;;;6.37;5.77;;;29.90;98.50;;;;;;5269187;28;20185;-50
2023/08/20 09:02:25;;;;;;;8.40;5.50;;;29.30;99.10;;;;;;5257051;28;20192;-49
2023/08/20 09:04:57;;;;;;;7.20;6.33;;;29.30;99.90;;;;;;5268659;28;20996;-49
2023/08/20 09:07:27;;;;;;;10.57;6.00;;;29.30;99.80;;;;;;5265323;28;20277;-48
2023/08/20 09:10:00;;;;;;;4.90;4.50;;;29.70;98.90;;;;;;5270972;28;20470;-49
2023/08/20 09:12:35;;;;;;;14.07;5.33;;;30.00;98.20;;;;;;5247445;28;20201;-49
2023/08/20 09:15:10;;;;;;;5.03;4.63;;;29.90;97.80;;;;;;5244617;28;20486;-50
2023/08/20 09:17:42;;;;;;;6.13;4.67;;;29.80;98.40;;;;;;5266417;28;20434;-48
2023/08/20 09:20:12;;;;;;;6.17;4.67;;;29.80;96.90;;;;;;5257457;28;20419;-49
2023/08/20 09:22:50;;;;;;;5.27;4.80;;;29.50;97.30;;;;;;5258837;28;20451;-50
2023/08/20 09:25:21;;;;;;;5.07;4.63;;;29.40;97.30;;;;;;5265188;28;20199;-51
2023/08/20 09:27:54;;;;;;;7.00;4.60;;;29.40;96.70;;;;;;5264749;28;20570;-49
2023/08/20 09:30:25;;;;;;;6.60;4.90;;;29.30;97.10;;;;;;5260457;28;20570;-50
2023/08/20 09:33:07;;;;;;;5.50;4.90;;;29.00;97.60;;;;;;5258506;28;20482;-49
2023/08/20 09:35:38;;;;;;;5.77;5.27;;;28.80;98.00;;;;;;5258864;28;20496;-50
2023/08/20 09:38:09;;;;;;;5.17;4.87;;;28.40;98.90;;;;;;5265522;28;20843;-50
2023/08/20 09:40:40;;;;;;;13.53;5.50;;;28.10;99.90;;;;;;5265014;28;20192;-48
2023/08/20 09:43:13;;;;;;;9.43;4.83;;;27.90;99.90;;;;;;5266615;28;20181;-50
2023/08/20 09:45:46;;;;;;;9.83;5.40;;;27.80;99.90;;;;;;5265864;28;20970;-50
2023/08/20 09:48:22;;;;;;;6.20;5.27;;;27.80;99.90;;;;;;5274426;28;20427;-47
2023/08/20 09:50:57;;;;;;;7.03;5.90;;;27.80;99.90;;;;;;5271950;28;20565;-47
2023/08/20 09:53:38;;;;;;;6.50;5.50;;;27.50;99.90;;;;;;5255336;28;20521;-48
2023/08/20 09:56:21;;;;;;;5.47;4.97;;;27.50;99.90;;;;;;5250145;28;21060;-50
2023/08/20 09:58:53;;;;;;;9.03;5.33;;;27.80;99.90;;;;;;5246883;28;20432;-48
2023/08/20 10:01:26;;;;;;;5.63;5.13;;;28.10;99.90;;;;;;5248001;28;20479;-49
2023/08/20 10:03:57;;;;;;;9.23;6.00;;;28.10;99.90;;;;;;5248295;28;20837;-48
2023/08/20 10:06:29;;;;;;;5.40;4.90;;;28.30;99.90;;;;;;5245392;28;23341;-48
2023/08/20 10:09:00;;;;;;;6.10;4.93;;;28.30;99.90;;;;;;5250716;28;21109;-49
2023/08/20 10:11:31;;;;;;;6.13;4.20;;;28.30;99.90;;;;;;5258152;28;20468;-48
2023/08/20 10:14:02;;;;;;;4.50;4.07;;;28.30;99.50;;;;;;5259218;28;20490;-49
2023/08/20 10:16:36;;;;;;;4.13;3.83;;;28.20;99.20;;;;;;5270240;28;20301;-48
2023/08/20 10:19:06;;;;;;;3.90;3.60;;;28.10;99.10;;;;;;5273187;28;20447;-48
2023/08/20 10:21:45;;;;;;;3.73;3.53;;;28.00;98.80;;;;;;5273546;28;20451;-49
2023/08/20 10:24:18;;;;;;;4.13;3.83;;;27.90;99.10;;;;;;5267722;28;20200;-50
2023/08/20 10:27:08;;;;;;;7.10;5.10;;;27.90;98.90;;;;;;5269461;28;20435;-47
2023/08/20 10:29:43;;;;;;;5.40;2.90;;;27.70;97.90;;;;;;5266115;28;20533;-50
2023/08/20 10:32:14;;;;;;;8.40;3.40;;;27.70;97.60;;;;;;5273142;28;20804;-48
2023/08/20 10:34:50;;;;;;;10.57;3.07;;;27.80;97.60;;;;;;5271519;28;20474;-50
2023/08/20 10:37:30;;;;;;;2.73;2.47;;;27.90;96.70;;;;;;5263995;28;20215;-49
2023/08/20 10:40:01;;;;;;;6.20;3.10;;;28.10;96.10;;;;;;5267761;28;20436;-48
2023/08/20 10:42:32;;;;;;;3.00;2.87;;;28.00;95.50;;;;;;5268930;28;20474;-49
2023/08/20 10:45:08;;;;;;;2.10;2.00;;;27.90;95.40;;;;;;5270837;28;20200;-49
2023/08/20 10:47:44;;;;;;;2.53;2.40;;;27.90;95.80;;;;;;5270031;28;20462;-49
2023/08/20 10:50:20;;;;;;;7.10;3.83;;;28.00;95.10;;;;;;5268491;28;20439;-48
2023/08/20 10:52:55;;;;;;;5.37;4.10;;;28.00;94.60;;;;;;5268611;28;20520;-55
2023/08/20 10:55:26;;;;;;;2.40;2.20;;;28.00;93.90;;;;;;5267124;28;20469;-49
2023/08/20 10:57:59;;;;;;;3.27;2.40;;;28.10;94.50;;;;;;5269254;28;20444;-50
2023/08/20 11:00:30;;;;;;;2.77;2.60;;;27.90;93.10;;;;;;5267919;28;20446;-48
2023/08/20 11:03:01;;;;;;;3.00;2.60;;;27.90;93.40;;;;;;5268679;28;20442;-48
2023/08/20 11:05:32;;;;;;;7.50;2.90;;;27.90;93.40;;;;;;5276075;28;20191;-48
2023/08/20 11:08:05;;;;;;;2.47;2.27;;;27.90;93.20;;;;;;5254335;28;20243;-49
2023/08/20 11:10:37;;;;;;;2.63;2.40;;;28.00;92.40;;;;;;5274451;28;20440;-49
2023/08/20 11:13:08;;;;;;;2.13;2.03;;;28.10;92.60;;;;;;5273659;28;20497;-50
2023/08/20 11:15:39;;;;;;;1.80;1.70;;;28.20;92.60;;;;;;5269025;28;20467;-52
2023/08/20 11:18:10;;;;;;;4.13;3.37;;;28.40;91.70;;;;;;5277775;28;20427;-48
2023/08/20 11:20:41;;;;;;;3.57;2.20;;;28.40;91.50;;;;;;5273927;28;20947;-49
2023/08/20 11:23:12;;;;;;;3.87;3.60;;;28.50;91.10;;;;;;5272144;28;20177;-49
2023/08/20 11:25:43;;;;;;;2.47;2.27;;;28.50;90.70;;;;;;5277046;28;20465;-49
2023/08/20 11:28:14;;;;;;;3.30;2.70;;;28.40;90.30;;;;;;5276380;28;20700;-50
2023/08/20 11:30:46;;;;;;;2.57;2.37;;;28.30;90.40;;;;;;5268602;28;21669;-50
2023/08/20 11:33:17;;;;;;;3.77;3.47;;;28.20;90.20;;;;;;5256570;28;20175;-48
2023/08/20 11:35:49;;;;;;;3.10;2.90;;;28.20;90.30;;;;;;5256789;28;20471;-50
2023/08/20 11:38:24;;;;;;;1.90;1.80;;;28.20;90.20;;;;;;5258975;28;20438;-50
2023/08/20 11:40:57;;;;;;;3.80;3.50;;;28.30;90.00;;;;;;5261057;28;20458;-49
2023/08/20 11:43:29;;;;;;;2.20;2.10;;;28.40;89.30;;;;;;5256901;28;20423;-48
2023/08/20 11:46:00;;;;;;;3.93;2.80;;;28.30;87.00;;;;;;5259023;28;20492;-48
2023/08/20 11:48:30;;;;;;;2.50;2.40;;;28.20;87.70;;;;;;5260094;28;20959;-50
2023/08/20 11:51:01;;;;;;;8.43;4.30;;;28.20;88.50;;;;;;5263740;28;20676;-48
2023/08/20 11:53:32;;;;;;;3.27;2.97;;;28.10;88.00;;;;;;5264987;28;20184;-50
2023/08/20 11:56:03;;;;;;;4.20;3.13;;;28.20;87.80;;;;;;5260716;28;20849;-49
2023/08/20 11:58:34;;;;;;;2.33;1.87;;;28.30;88.10;;;;;;5256414;28;20272;-50
2023/08/20 12:01:08;;;;;;;3.40;1.80;;;28.40;87.20;;;;;;5260660;28;20551;-49
2023/08/20 12:03:38;;;;;;;2.23;2.10;;;28.30;87.30;;;;;;5267775;28;20424;-49
2023/08/20 12:06:20;;;;;;;2.97;2.33;;;28.40;86.40;;;;;;5266328;28;20435;-50
2023/08/20 12:08:50;;;;;;;2.60;2.33;;;28.40;86.80;;;;;;5261780;28;20174;-49
2023/08/20 12:11:26;;;;;;;1.90;1.80;;;28.40;86.50;;;;;;5263834;28;20452;-50
2023/08/20 12:13:57;;;;;;;2.67;2.40;;;28.50;86.60;;;;;;5270777;28;20176;-50
2023/08/20 12:16:30;;;;;;;2.20;2.10;;;28.60;87.50;;;;;;5268822;28;20467;-50
2023/08/20 12:19:01;;;;;;;1.97;1.87;;;28.50;85.90;;;;;;5273405;28;20508;-50
2023/08/20 12:21:32;;;;;;;1.87;1.70;;;28.50;86.90;;;;;;5274181;28;20438;-49
2023/08/20 12:24:04;;;;;;;2.00;1.90;;;28.60;86.30;;;;;;5277308;28;20177;-49
2023/08/20 12:26:35;;;;;;;2.70;2.40;;;28.70;85.20;;;;;;5280413;28;20569;-49
2023/08/20 12:29:06;;;;;;;1.93;1.83;;;28.70;83.00;;;;;;5271931;28;20966;-48
2023/08/20 12:31:37;;;;;;;2.80;1.77;;;28.60;83.30;;;;;;5269906;28;20502;-48
2023/08/20 12:34:09;;;;;;;4.70;1.80;;;28.70;82.60;;;;;;5270420;28;20447;-49
2023/08/20 12:36:39;;;;;;;3.90;3.60;;;28.70;80.60;;;;;;5261826;28;20562;-48
2023/08/20 12:39:10;;;;;;;3.57;2.60;;;28.70;81.10;;;;;;5259020;28;21385;-47
2023/08/20 12:41:41;;;;;;;2.67;2.57;;;28.80;81.40;;;;;;5261478;28;20589;-49
2023/08/20 12:44:12;;;;;;;2.17;1.93;;;28.90;77.80;;;;;;5265042;28;20215;-48
2023/08/20 12:46:43;;;;;;;1.70;1.63;;;29.00;75.60;;;;;;5277087;28;20457;-49
2023/08/20 12:49:14;;;;;;;12.53;1.63;;;29.00;73.40;;;;;;5277642;28;20182;-49
2023/08/20 12:51:44;;;;;;;1.70;1.60;;;29.00;73.30;;;;;;5282407;28;20696;-48
2023/08/20 12:54:16;;;;;;;4.63;1.87;;;29.00;74.80;;;;;;5278105;27;20181;-49
2023/08/20 12:56:47;;;;;;;2.63;1.50;;;29.00;74.50;;;;;;5277008;28;20200;-48
2023/08/20 12:59:18;;;;;;;4.97;2.77;;;28.90;74.80;;;;;;5277517;28;20443;-49